Flight Track Log - Related Links

Times and Time Zones

All times are in EDT time to prevent confusion due to time zone crossing. See the RPA3468 flight status page for this flight to view local times or setup timezone preferences in your user account.

Time Position Orientation Groundspeed Altitude Reporting Facility
EDT Latitude Longitude Course Direction KTS MPH feet Rate Location/Type
Sun 08:09:41 PM 38.8333 -77.0333 61° Northeast 151 174 1,300  Level Potomac TRACON
Sun 08:11:45 PM 38.7469 -76.9731 151° Southeast 182 209 5,300 2,374 Climbing Washington Center
Sun 08:12:00 PM 39.0153 -76.5695 57° Northeast  Level FlightAware Approximate
Sun 08:12:43 PM 38.8203 -76.9372 21° North 145 167 8,500  Level Washington Center
Sun 08:13:00 PM 39.0593 -76.4517 63° Northeast  Level FlightAware Approximate
Sun 08:13:44 PM 38.9061 -76.9175 10° North 209 241 10,800  Level Washington Center
Sun 08:14:00 PM 39.1080 -76.3369 61° Northeast  Level FlightAware Approximate
Sun 08:14:44 PM 39.0022 -76.8925 11° North 286 329 13,000  Level Washington Center
Sun 08:15:45 PM 39.0594 -76.7919 54° Northeast 311 358 15,400 2,420 Climbing Washington Center
Sun 08:16:43 PM 39.0797 -76.6531 79° East 341 392 17,800 2,168 Climbing Washington Center
Sun 08:17:44 PM 39.1017 -76.5144 78° East 360 414 19,700 1,900 Climbing Washington Center
Sun 08:18:43 PM 39.1256 -76.3703 78° East 390 449 21,600 1,636 Climbing Washington Center
Sun 08:19:45 PM 39.1472 -76.2233 79° East 403 464 23,000 689 Climbing Washington Center
Sun 08:20:45 PM 39.1686 -76.0842 79° East 423 487 23,000 661 Level Washington Center
Sun 08:21:43 PM 39.1858 -75.9317 82° East 429 494 24,300 1,424 Climbing Washington Center
Sun 08:22:43 PM 39.2528 -75.8061 55° Northeast 420 483 25,800 1,438 Climbing Washington Center
Sun 08:23:44 PM 39.3406 -75.6908 45° Northeast 421 484 27,200 1,250 Climbing Washington Center
Sun 08:24:43 PM 39.4281 -75.5781 45° Northeast 427 491 28,300 1,149 Climbing Washington Center
Sun 08:26:52 PM 39.6256 -75.3206 45° Northeast 460 529 30,800 1,175 Climbing New York Center
Sun 08:27:52 PM 39.7114 -75.1992 47° Northeast 460 529 32,000 1,050 Climbing New York Center
Sun 08:28:52 PM 39.7864 -75.0878 49° Northeast 460 529 32,900 1,041 Climbing New York Center
Sun 08:29:53 PM 39.8700 -74.9686 48° Northeast 455 524 34,100 1,041 Climbing New York Center
Sun 08:30:53 PM 39.9622 -74.8386 47° Northeast 443 510 35,000 454 Climbing New York Center
Sun 08:31:52 PM 40.0561 -74.7683 30° Northeast 438 504 35,000  Level New York Center
Sun 08:32:52 PM 40.1681 -74.7286 15° North 411 473 35,000  Level New York Center
Sun 08:33:52 PM 40.2800 -74.6858 16° North 411 473 35,000  Level New York Center
Sun 08:34:53 PM 40.3958 -74.6461 15° North 416 479 35,000  Level New York Center
Sun 08:35:51 PM 40.5097 -74.6036 16° North 421 484 35,000  Level New York Center
Sun 08:36:51 PM 40.6256 -74.5689 13° North 421 484 35,000  Level New York Center
Sun 08:39:29 PM 40.9172 -74.4644 15° North 411 473 35,000  Level Boston Center
Sun 08:40:29 PM 41.0303 -74.4239 15° North 416 479 35,000  Level Boston Center
Sun 08:41:29 PM 41.1625 -74.3839 13° North 423 487 35,000  Level Boston Center
Sun 08:42:29 PM 41.2842 -74.3322 18° North 429 494 35,000  Level Boston Center
Sun 08:43:29 PM 41.3994 -74.2942 14° North 424 488 35,000  Level Boston Center
Sun 08:44:29 PM 41.5125 -74.2531 15° North 417 480 35,000  Level Boston Center
Sun 08:45:29 PM 41.6194 -74.2172 14° North 427 491 35,000  Level Boston Center
Sun 08:47:29 PM 41.8375 -74.1425 14° North 407 468 35,000  Level Boston Center
Sun 08:48:29 PM 41.9506 -74.1011 15° North 402 463 35,000  Level Boston Center
Sun 08:49:29 PM 42.0575 -74.0619 15° North 402 463 35,000 -200 Level Boston Center
Sun 08:50:29 PM 42.1664 -74.0228 15° North 402 463 34,600 -950 Descending Boston Center
Sun 08:51:29 PM 42.2733 -73.9833 15° North 402 463 33,100 -1,300 Descending Boston Center
Sun 08:52:29 PM 42.3842 -73.9411 16° North 402 463 32,000 -550 Descending Boston Center
Sun 08:53:29 PM 42.4994 -73.8989 15° North 408 470 32,000  Level Boston Center
Sun 08:54:29 PM 42.6103 -73.8564 16° North 414 476 32,000  Level Boston Center
Sun 08:55:29 PM 42.7214 -73.8136 16° North 414 476 32,000  Level Boston Center
Sun 08:56:29 PM 42.8303 -73.7736 15° North 414 476 32,000  Level Boston Center
Sun 08:57:29 PM 42.9350 -73.7333 16° North 403 464 32,000 -350 Level Boston Center
Sun 08:58:29 PM 43.0436 -73.6958 14° North 397 457 31,300 -1,150 Descending Boston Center
Sun 08:59:29 PM 43.1650 -73.6500 15° North 402 463 29,700 -2,045 Descending Boston Center
Sun 09:00:41 PM 43.2928 -73.6011 16° North 396 456 26,800 -2,273 Descending Boston Center
Sun 09:01:41 PM 43.3972 -73.5603 16° North 390 449 24,700 -1,550 Descending Boston Center
Sun 09:02:41 PM 43.4956 -73.5247 15° North 376 433 23,700 -1,850 Descending Boston Center
Sun 09:03:41 PM 43.5897 -73.4919 14° North 364 419 21,000 -2,700 Descending Boston Center
Sun 09:04:41 PM 43.6839 -73.4564 15° North 351 404 18,300 -2,500 Descending Boston Center
Sun 09:05:41 PM 43.7694 -73.4233 16° North 327 376 16,000 -2,350 Descending Boston Center
Sun 09:06:41 PM 43.8531 -73.3931 15° North 316 364 13,600 -2,050 Descending Boston Center
Sun 09:07:41 PM 43.9325 -73.3625 15° North 305 351 11,900 -1,550 Descending Boston Center
Sun 09:08:41 PM 44.0100 -73.3319 16° North 290 334 10,500 -1,500 Descending Boston Center
Sun 09:09:41 PM 44.0853 -73.3014 16° North 283 326 8,900 -1,500 Descending Boston Center
Sun 09:10:41 PM 44.1625 -73.2736 14° North 283 326 7,500 -1,350 Descending Boston Center
Sun 09:11:41 PM 44.2375 -73.2747 359° North 278 320 6,200 -1,150 Descending Boston Center
Sun 09:12:41 PM 44.3122 -73.2931 350° North 271 312 5,200 -950 Descending Boston Center
Sun 09:13:41 PM 44.3767 -73.3086 350° North 248 285 4,300 -1,200 Descending Boston Center
Sun 09:14:41 PM 44.4411 -73.3328 345° North 237 273 2,800 -750 Descending Boston Center
Sun 09:15:41 PM 44.4994 -73.3628 340° North 245 282 2,800 -250 Level Boston Center
Sun 09:16:41 PM 44.5536 -73.3372 19° North 214 246 2,300 -300 Descending Boston Center
Sun 09:17:41 PM 44.5458 -73.2761 100° East 124 143 2,200 -100 Descending Boston Center

Login

Don't have an account? Register now (free) for customized features, flight alerts, and more!